Airfield :







YOU CAN JOIN US ON...

 
LOGIN :

Register | Disclaimer

   EN    FR    IT 

 









Legend :    VFR   Marginal VFR   IFR   Intensive IFR   Very Intensive IFR
Visi :
Ceiling :
>= 8 km
>= 3000ft
5 to 8 km
1000 to 3000 ft
1500m to 5 km
500 to 1000 ft
800 to 1500m
200 to 500 ft
< 800m
< 200 ft
Symbols :   Thunderstorms  Fog  Heavy snow  Heavy precipitations  Wind > 20 kt






- Airport Elevation : 348 ft


KFIT - Fitchburg Municipal

CURRENT METAR :
  • 151252Z AUTO 28023G33KT 250V320 10SM OVC047 06/M04 A2946 RMK AO2 PK WND 29035/1235 SLP980 T00561039

EXPIRED METARs :
  • 151152Z AUTO 28013G26KT 250V320 10SM OVC043 06/M03 A2943 RMK AO2 PK WND 25034/1138 SLP967 7//// T00561028 10067 20044 51041
  • 151052Z AUTO 28014G24KT 10SM OVC039 06/M02 A2939 RMK AO2 PK WND 29032/1038 SLP956 T00561022

TAF N/A



MET'MAP, your aeronautical weather chart ! - Copyright ORBIFLY December 2007 - Disclaimer

ORBIFLY MET'MAP TEAM :

Programming & Development : Alexandra Zaïnal
Concept & original design : Baudouin d'Aumeries
Assistance for programming : Marc-Olivier Méhu
Technical & hardware support : Manuel Goepfert

Contact : metmap@orbifly.com




SOURCES & CREDITS :

   NOAA